createdAt,value
2024-02-24T00:04:43.860Z,98794.94
2024-02-24T00:10:07.974Z,98797.41
2024-02-24T00:15:30.863Z,98776.97
2024-02-24T00:20:55.240Z,98788.13
2024-02-24T00:26:18.164Z,98786.97
2024-02-24T00:31:42.012Z,98789.56
2024-02-24T00:37:06.520Z,98788.28
2024-02-24T00:42:29.674Z,98781.56
2024-02-24T00:47:55.245Z,98780.38
2024-02-24T00:53:19.551Z,98784.69
2024-02-24T00:58:42.460Z,98788.94
2024-02-24T01:04:05.653Z,98795.66
2024-02-24T01:09:29.926Z,98793.84
2024-02-24T01:14:57.022Z,98789.03
2024-02-24T01:20:21.097Z,98792.75
2024-02-24T01:25:46.874Z,98790.38
2024-02-24T01:31:09.743Z,98784.72
2024-02-24T01:36:32.870Z,98781.97
2024-02-24T01:41:57.161Z,98779.09
2024-02-24T01:47:20.428Z,98777.91
2024-02-24T01:52:47.539Z,98779.59
2024-02-24T01:58:12.227Z,98766.38
2024-02-24T02:03:35.766Z,98771.75
2024-02-24T02:08:58.659Z,98776.84
2024-02-24T02:14:22.931Z,98788.97
2024-02-24T02:19:46.072Z,98787.63
2024-02-24T02:25:12.619Z,98786.75
2024-02-24T02:30:35.493Z,98802.88
2024-02-24T02:35:58.327Z,98805.59
2024-02-24T02:41:22.583Z,98801.28
2024-02-24T02:46:47.773Z,98801.13
2024-02-24T02:52:10.619Z,98812.22
2024-02-24T02:57:34.814Z,98818.34
2024-02-24T03:02:57.700Z,98815.06
2024-02-24T03:08:20.536Z,98806.94
2024-02-24T03:13:44.697Z,98806.50
2024-02-24T03:19:08.331Z,98821.19
2024-02-24T03:24:31.130Z,98818.75
2024-02-24T03:29:55.507Z,98821.44
2024-02-24T03:35:18.495Z,98813.72
2024-02-24T03:40:41.608Z,98817.25
2024-02-24T03:46:06.770Z,98829.53
2024-02-24T03:51:29.647Z,98841.56
2024-02-24T03:56:53.180Z,98843.88
2024-02-24T04:02:17.431Z,98836.63
2024-02-24T04:07:40.371Z,98841.72
2024-02-24T04:13:03.190Z,98840.16
2024-02-24T04:18:27.543Z,98836.16
2024-02-24T04:23:50.788Z,98836.94
2024-02-24T04:29:13.660Z,98839.91
2024-02-24T04:34:40.144Z,98833.16
2024-02-24T04:40:03.025Z,98821.81
2024-02-24T04:45:28.989Z,98830.34
2024-02-24T04:50:53.249Z,98833.31
2024-02-24T04:56:17.918Z,98841.66
2024-02-24T05:01:42.527Z,98837.16
2024-02-24T05:07:06.855Z,98846.91
2024-02-24T05:12:32.331Z,98857.69
2024-02-24T05:17:55.349Z,98862.50
2024-02-24T05:23:19.627Z,98859.56
2024-02-24T05:28:42.484Z,98865.50
2024-02-24T05:34:06.350Z,98869.28
2024-02-24T05:39:30.596Z,98875.47
2024-02-24T05:44:53.580Z,98874.00
2024-02-24T05:50:16.684Z,98888.00
2024-02-24T05:55:40.954Z,98891.88
2024-02-24T06:01:04.617Z,98902.13
2024-02-24T06:06:32.319Z,98901.16
2024-02-24T06:11:56.644Z,98887.28
2024-02-24T06:17:19.797Z,98891.22
2024-02-24T06:22:42.655Z,98903.53
2024-02-24T06:28:11.517Z,98898.16
2024-02-24T06:33:34.659Z,98897.25
2024-02-24T06:38:58.128Z,98924.25
2024-02-24T06:44:22.332Z,98934.66
2024-02-24T06:49:46.420Z,98933.41
2024-02-24T06:55:09.663Z,98933.94
2024-02-24T07:00:33.925Z,98940.97
2024-02-24T07:05:56.982Z,98943.66
2024-02-24T07:11:20.105Z,98956.56
2024-02-24T07:16:44.457Z,98970.88
2024-02-24T07:22:07.310Z,98974.84
2024-02-24T07:27:30.605Z,98972.34
2024-02-24T07:32:54.944Z,98965.41
2024-02-24T07:38:17.954Z,98974.84
2024-02-24T07:43:40.838Z,98960.78
2024-02-24T07:49:05.281Z,98973.41
2024-02-24T07:54:28.176Z,98989.81
2024-02-24T07:59:51.066Z,98993.03
2024-02-24T08:05:15.398Z,99002.66
2024-02-24T08:10:38.313Z,99000.19
2024-02-24T08:16:05.858Z,98998.09
2024-02-24T08:21:32.400Z,98993.34
2024-02-24T08:26:58.251Z,99001.34
2024-02-24T08:32:21.262Z,99012.78
2024-02-24T08:37:45.572Z,99029.84
2024-02-24T08:43:08.483Z,99044.19
2024-02-24T08:48:31.380Z,99045.34
2024-02-24T08:53:55.908Z,99056.97
2024-02-24T08:59:18.884Z,99059.03
2024-02-24T09:04:41.839Z,99065.91
2024-02-24T09:10:09.031Z,99080.78
2024-02-24T09:15:32.534Z,99087.25
2024-02-24T09:20:55.558Z,99088.72
2024-02-24T09:26:20.366Z,99104.09
2024-02-24T09:31:43.178Z,99109.38
2024-02-24T09:37:06.656Z,99098.09
2024-02-24T09:42:30.881Z,99114.22
2024-02-24T09:47:55.261Z,99119.06
2024-02-24T09:53:18.290Z,99111.47
2024-02-24T09:58:43.686Z,99136.06
2024-02-24T10:04:08.230Z,99142.75
2024-02-24T10:09:31.480Z,99163.16
2024-02-24T10:14:56.929Z,99180.63
2024-02-24T10:20:19.849Z,99171.03
2024-02-24T10:25:42.851Z,99177.13
2024-02-24T10:31:07.428Z,99172.72
2024-02-24T10:36:30.460Z,99179.50
2024-02-24T10:41:54.773Z,99173.41
2024-02-24T10:47:19.401Z,99170.25
2024-02-24T10:52:42.907Z,99180.13
2024-02-24T10:58:06.458Z,99182.16
2024-02-24T11:03:32.005Z,99187.16
2024-02-24T11:08:55.540Z,99187.28
2024-02-24T11:14:18.793Z,99199.50
2024-02-24T11:19:44.301Z,99192.22
2024-02-24T11:25:07.920Z,99198.09
2024-02-24T11:30:46.825Z,99212.09
2024-02-24T11:36:12.779Z,99192.78
2024-02-24T11:41:38.012Z,99187.47
2024-02-24T11:47:00.910Z,99203.84
2024-02-24T11:52:25.401Z,99212.28
2024-02-24T11:57:48.325Z,99206.56
2024-02-24T12:03:13.148Z,99215.78
2024-02-24T12:08:38.071Z,99224.34
2024-02-24T12:14:01.023Z,99235.56
2024-02-24T12:19:26.294Z,99233.22
2024-02-24T12:24:50.655Z,99227.88
2024-02-24T12:30:14.410Z,99226.47
2024-02-24T12:35:38.730Z,99210.63
2024-02-24T12:41:08.669Z,99216.16
2024-02-24T12:46:31.654Z,99217.69
2024-02-24T12:51:54.920Z,99197.41
2024-02-24T12:57:19.166Z,99188.72
2024-02-24T13:02:42.569Z,99178.75
2024-02-24T13:08:06.291Z,99187.72
2024-02-24T13:13:30.536Z,99215.22
2024-02-24T13:18:53.445Z,99223.28
2024-02-24T13:24:16.335Z,99215.66
2024-02-24T13:29:40.673Z,99210.44
2024-02-24T13:35:05.132Z,99236.13
2024-02-24T13:40:28.126Z,99253.78
2024-02-24T13:45:52.485Z,99262.59
2024-02-24T13:51:15.354Z,99281.41
2024-02-24T13:56:38.301Z,99277.44
2024-02-24T14:02:02.541Z,99286.00
2024-02-24T14:07:25.470Z,99274.00
2024-02-24T14:12:48.348Z,99278.16
2024-02-24T14:18:12.675Z,99278.47
2024-02-24T14:23:35.612Z,99270.09
2024-02-24T14:29:01.375Z,99276.63
2024-02-24T14:34:27.024Z,99278.63
2024-02-24T14:39:49.784Z,99293.88
2024-02-24T14:45:12.681Z,99288.28
2024-02-24T14:50:37.160Z,99301.06
2024-02-24T14:56:00.229Z,99299.94
2024-02-24T15:01:23.169Z,99303.00
2024-02-24T15:06:48.358Z,99295.78
2024-02-24T15:12:11.346Z,99304.16
2024-02-24T15:17:34.262Z,99327.06
2024-02-24T15:22:58.559Z,99330.50
2024-02-24T15:28:23.443Z,99340.81
2024-02-24T15:33:46.291Z,99339.91
2024-02-24T15:39:10.640Z,99345.88
2024-02-24T15:44:33.627Z,99366.16
2024-02-24T15:49:56.667Z,99379.13
2024-02-24T15:55:20.901Z,99377.53
2024-02-24T16:00:44.678Z,99381.69
2024-02-24T16:06:07.917Z,99390.84
2024-02-24T16:11:32.479Z,99406.56
2024-02-24T16:16:55.498Z,99415.16
2024-02-24T16:22:18.361Z,99413.56
2024-02-24T16:27:43.383Z,99416.50
2024-02-24T16:33:06.515Z,99419.25
2024-02-24T16:38:29.572Z,99416.72
2024-02-24T16:43:53.815Z,99432.00
2024-02-24T16:49:19.204Z,99441.19
2024-02-24T16:54:42.324Z,99443.25
2024-02-24T17:00:10.024Z,99452.06
2024-02-24T17:05:33.138Z,99452.84
2024-02-24T17:10:56.086Z,99453.53
2024-02-24T17:16:23.565Z,99456.50
2024-02-24T17:21:46.510Z,99465.28
2024-02-24T17:27:09.568Z,99470.16
2024-02-24T17:32:33.960Z,99477.53
2024-02-24T17:37:56.924Z,99487.16
2024-02-24T17:43:19.829Z,99495.50
2024-02-24T17:48:44.233Z,99501.06
2024-02-24T17:54:07.297Z,99511.47
2024-02-24T17:59:30.475Z,99517.78
2024-02-24T18:04:57.488Z,99515.81
2024-02-24T18:10:20.755Z,99521.34
2024-02-24T18:15:50.352Z,99518.94
2024-02-24T18:21:19.150Z,99516.97
2024-02-24T18:26:43.216Z,99523.94
2024-02-24T18:32:06.534Z,99524.59
2024-02-24T18:37:30.842Z,99523.81
2024-02-24T18:42:53.733Z,99529.69
2024-02-24T18:48:16.891Z,99525.28
2024-02-24T18:53:41.234Z,99529.66
2024-02-24T18:59:06.743Z,99532.16
2024-02-24T19:04:29.659Z,99521.84
2024-02-24T19:09:55.591Z,99522.78
2024-02-24T19:15:19.983Z,99538.06
2024-02-24T19:20:42.994Z,99538.03
2024-02-24T19:26:07.579Z,99540.06
2024-02-24T19:31:30.502Z,99539.38
2024-02-24T19:36:53.529Z,99548.44
2024-02-24T19:42:17.738Z,99535.53
2024-02-24T19:47:41.259Z,99540.63
2024-02-24T19:53:04.469Z,99536.41
2024-02-24T19:58:34.886Z,99542.38
2024-02-24T20:04:02.269Z,99545.66
2024-02-24T20:09:25.184Z,99541.81
2024-02-24T20:14:51.037Z,99550.13
2024-02-24T20:20:14.068Z,99550.91
2024-02-24T20:25:36.984Z,99563.00
2024-02-24T20:31:01.320Z,99564.00
2024-02-24T20:36:24.228Z,99571.47
2024-02-24T20:41:47.218Z,99578.59
2024-02-24T20:47:11.594Z,99573.41
2024-02-24T20:52:36.969Z,99563.47
2024-02-24T20:57:59.867Z,99564.16
2024-02-24T21:03:24.172Z,99563.38
2024-02-24T21:08:47.184Z,99566.56
2024-02-24T21:14:17.832Z,99566.56
2024-02-24T21:19:42.346Z,99558.41
2024-02-24T21:25:08.410Z,99568.19
2024-02-24T21:30:31.392Z,99574.19
2024-02-24T21:35:55.620Z,99576.88
2024-02-24T21:41:18.762Z,99575.81
2024-02-24T21:46:41.823Z,99578.56
2024-02-24T21:52:08.622Z,99578.84
2024-02-24T21:57:33.292Z,99573.44
2024-02-24T22:02:56.455Z,99576.47
2024-02-24T22:08:20.911Z,99590.81
2024-02-24T22:13:45.506Z,99588.88
2024-02-24T22:19:08.579Z,99576.44
2024-02-24T22:24:32.923Z,99585.44
2024-02-24T22:30:05.091Z,99588.88
2024-02-24T22:35:36.146Z,99589.19
2024-02-24T22:41:00.472Z,99587.03
2024-02-24T22:46:24.368Z,99583.25
2024-02-24T22:51:47.253Z,99594.66
2024-02-24T22:57:11.556Z,99595.97
2024-02-24T23:02:34.454Z,99597.66
2024-02-24T23:07:57.305Z,99597.88
2024-02-24T23:13:21.884Z,99610.03
2024-02-24T23:18:45.544Z,99614.34
2024-02-24T23:24:08.812Z,99606.13
2024-02-24T23:29:33.224Z,99602.41
2024-02-24T23:34:56.135Z,99605.75
2024-02-24T23:40:19.174Z,99601.19
2024-02-24T23:45:44.201Z,99594.19
2024-02-24T23:51:07.136Z,99595.19
2024-02-24T23:56:30.180Z,99587.63
